Time;durP1;ratioP1;P1;durP2;ratioP2;P2;SDS_P1;SDS_P2;PMS_P1;PMS_P2;Temp;Humidity;BMP_temperature;BMP_pressure;BME280_temperature;BME280_humidity;BME280_pressure;Samples;Min_cycle;Max_cycle;Signal;HPM_P1;HPM_P2
2021/12/22 00:02:19;;;;;;;4.03;3.78;;;;;;;-4.13;100.00;102219.44;4347040;32;20482;-73
2021/12/22 00:04:47;;;;;;;1.90;1.85;;;;;;;-4.15;100.00;102203.13;4362022;32;20137;-73
2021/12/22 00:07:12;;;;;;;3.55;3.45;;;;;;;-4.16;100.00;102192.00;4343379;32;20061;-76
2021/12/22 00:09:38;;;;;;;2.00;1.90;;;;;;;-5.44;100.00;101970.13;4364528;32;20175;-76
2021/12/22 00:12:03;;;;;;;1.75;1.75;;;;;;;-5.72;100.00;101924.00;4367824;32;20086;-72
2021/12/22 00:14:29;;;;;;;2.05;1.95;;;;;;;-5.46;100.00;101968.34;4350216;32;20197;-73
2021/12/22 00:16:54;;;;;;;2.37;2.28;;;;;;;-4.08;100.00;102221.34;4366477;32;20483;-73
2021/12/22 00:19:19;;;;;;;3.30;3.20;;;;;;;-4.21;100.00;102185.84;4367860;32;20073;-73
2021/12/22 00:21:45;;;;;;;2.22;2.12;;;;;;;-4.14;100.00;102198.06;4361308;32;20557;-72
2021/12/22 00:24:10;;;;;;;3.75;3.62;;;;;;;-3.99;100.00;102213.06;4350230;32;20084;-74
2021/12/22 00:26:36;;;;;;;2.00;1.90;;;;;;;-3.99;100.00;102204.50;4355788;32;20580;-74
2021/12/22 00:29:01;;;;;;;1.70;1.70;;;;;;;-3.96;100.00;102220.00;4365254;32;21092;-73
2021/12/22 00:31:27;;;;;;;2.00;1.90;;;;;;;-3.96;100.00;102215.72;4374500;32;20096;-75
2021/12/22 00:33:54;;;;;;;2.30;2.20;;;;;;;-3.87;100.00;102203.22;4365478;32;20089;-73
2021/12/22 00:36:21;;;;;;;2.70;2.60;;;;;;;-4.05;100.00;102167.59;4364371;32;21077;-76
2021/12/22 00:38:47;;;;;;;2.12;2.03;;;;;;;-3.98;100.00;102199.44;4356474;32;20751;-74
2021/12/22 00:41:12;;;;;;;3.92;3.78;;;;;;;-3.96;100.00;102205.47;4350547;32;20289;-74
2021/12/22 00:43:38;;;;;;;2.20;2.10;;;;;;;-4.03;100.00;102190.69;4353581;32;20073;-74
2021/12/22 00:46:04;;;;;;;2.70;2.60;;;;;;;-3.97;100.00;102201.16;4362924;32;20072;-74
2021/12/22 00:48:29;;;;;;;2.08;1.98;;;;;;;-3.93;100.00;102200.47;4372909;32;20077;-74
2021/12/22 00:50:55;;;;;;;2.35;2.25;;;;;;;-4.14;100.00;102169.88;4359542;32;20089;-74
2021/12/22 00:53:20;;;;;;;3.30;3.20;;;;;;;-4.04;100.00;102205.22;4369221;32;20445;-74
2021/12/22 00:55:46;;;;;;;3.03;2.83;;;;;;;-5.18;100.00;102003.41;4355499;32;20088;-74
2021/12/22 00:58:12;;;;;;;3.78;3.65;;;;;;;-4.02;100.00;102198.44;4352009;32;20140;-74
2021/12/22 01:00:37;;;;;;;1.87;1.87;;;;;;;-4.03;100.00;102196.72;4369096;32;20650;-74
2021/12/22 01:03:03;;;;;;;2.17;2.08;;;;;;;-4.64;100.00;102089.66;4352178;32;20893;-72
2021/12/22 01:05:28;;;;;;;1.80;1.80;;;;;;;-4.66;100.00;102076.81;4366610;32;20059;-75
2021/12/22 01:07:54;;;;;;;2.10;2.00;;;;;;;-4.17;100.00;102158.63;4351603;32;20188;-75
2021/12/22 01:10:27;;;;;;;2.20;2.10;;;;;;;-5.34;100.00;101961.09;4366718;32;20446;-74
2021/12/22 01:12:54;;;;;;;1.60;1.60;;;;;;;-4.07;100.00;102176.03;4351323;32;20200;-74
2021/12/22 01:15:20;;;;;;;2.90;2.80;;;;;;;-4.46;100.00;102118.44;4365157;32;20311;-74
2021/12/22 01:17:48;;;;;;;1.77;1.77;;;;;;;-4.48;100.00;102126.91;4364352;32;20069;-74
2021/12/22 01:20:30;;;;;;;3.92;3.75;;;;;;;-4.09;100.00;102198.19;4360701;32;20086;-74
2021/12/22 01:23:02;;;;;;;1.83;1.80;;;;;;;-4.58;100.00;102128.28;4381278;32;20163;-73
2021/12/22 01:25:28;;;;;;;1.80;1.80;;;;;;;-5.09;100.00;102077.06;4355301;32;20092;-73
2021/12/22 01:27:54;;;;;;;1.67;1.67;;;;;;;-5.13;100.00;102073.53;4367744;32;20134;-74
2021/12/22 01:30:22;;;;;;;3.28;3.17;;;;;;;-4.77;100.00;102138.72;4351148;32;20511;-74
2021/12/22 01:32:48;;;;;;;1.70;1.70;;;;;;;-4.78;100.00;102142.13;4369074;32;20161;-74
2021/12/22 01:35:14;;;;;;;3.92;3.75;;;;;;;-4.94;100.00;102118.53;4349620;32;20073;-73
2021/12/22 01:37:40;;;;;;;2.05;1.95;;;;;;;-4.52;100.00;102184.84;4364908;32;20301;-74
2021/12/22 01:40:05;;;;;;;2.10;2.00;;;;;;;-4.59;100.00;102198.28;4367267;32;20119;-73
2021/12/22 01:42:31;;;;;;;1.80;1.80;;;;;;;-4.48;100.00;102231.94;4361955;32;20540;-73
2021/12/22 01:50:15;;;;;;;3.55;3.45;;;;;;;-5.66;100.00;102047.81;4366482;32;20410;-74
2021/12/22 01:52:41;;;;;;;2.03;1.92;;;;;;;-4.68;100.00;102195.41;4361366;32;20606;-73
2021/12/22 01:55:14;;;;;;;3.80;3.65;;;;;;;-4.43;100.00;102223.59;4361846;32;20517;-73
2021/12/22 01:57:48;;;;;;;2.00;1.90;;;;;;;-4.81;100.00;102151.44;4362232;32;20135;-72
2021/12/22 02:00:14;;;;;;;4.30;4.10;;;;;;;-4.29;100.00;102220.63;4361833;32;20675;-73
2021/12/22 02:02:39;;;;;;;2.08;1.98;;;;;;;-4.49;100.00;102181.50;4361709;32;20165;-74
2021/12/22 02:05:05;;;;;;;3.20;3.10;;;;;;;-4.38;100.00;102192.13;4365107;32;20076;-72
2021/12/22 02:07:30;;;;;;;2.00;1.90;;;;;;;-4.60;100.00;102152.97;4356724;32;20164;-74
2021/12/22 02:10:36;;;;;;;1.80;1.80;;;;;;;-4.22;100.00;102222.56;4363645;32;20088;-74
2021/12/22 02:12:51;;;;;;;2.03;1.92;;;;;;;-4.24;100.00;102208.84;4370711;32;20200;-74
2021/12/22 02:15:16;;;;;;;3.67;3.58;;;;;;;-4.58;100.00;102127.44;4350493;32;20069;-73
2021/12/22 02:17:41;;;;;;;1.85;1.85;;;;;;;-4.06;100.00;102216.25;4363775;32;20512;-74
2021/12/22 02:20:08;;;;;;;3.90;3.72;;;;;;;-5.91;100.00;101922.47;4356619;32;20074;-73
2021/12/22 02:22:34;;;;;;;2.00;1.90;;;;;;;-4.26;100.00;102187.41;4361591;32;20068;-74
2021/12/22 02:25:11;;;;;;;2.12;2.03;;;;;;;-4.14;100.00;102220.28;4352781;32;20176;-73
2021/12/22 02:27:44;;;;;;;1.80;1.80;;;;;;;-4.33;100.00;102183.78;4368365;32;20081;-74
2021/12/22 02:30:16;;;;;;;;;;;;;;;-4.14;100.00;102205.75;4373700;32;20670;-73
2021/12/22 02:35:13;;;;;;;5.43;5.20;;;;;;;-4.29;100.00;102189.84;4366086;32;20068;-74
2021/12/22 02:37:44;;;;;;;2.10;2.00;;;;;;;-5.98;100.00;101905.22;4362544;32;20603;-74
2021/12/22 02:40:14;;;;;;;3.87;3.72;;;;;;;-5.11;100.00;102071.00;4368472;32;20066;-74
2021/12/22 02:42:39;;;;;;;2.10;2.00;;;;;;;-4.96;100.00;102109.09;4362447;32;20342;-73
2021/12/22 02:45:09;;;;;;;7.25;4.18;;;;;;;-4.31;100.00;102201.75;4365834;32;20062;-73
2021/12/22 02:47:34;;;;;;;2.10;2.00;;;;;;;-4.28;100.00;102204.44;4362770;32;20108;-73
2021/12/22 02:50:03;;;;;;;2.10;2.00;;;;;;;-4.41;100.00;102182.63;4349710;32;20092;-74
2021/12/22 02:52:35;;;;;;;2.10;2.00;;;;;;;-4.42;100.00;102162.97;4348925;32;20070;-73
2021/12/22 02:55:02;;;;;;;;;;;;;;;-4.20;100.00;102192.75;4366160;32;20856;-73
2021/12/22 02:57:32;;;;;;;2.00;1.90;;;;;;;-4.30;100.00;102168.50;4376095;32;19965;-74
2021/12/22 03:00:27;;;;;;;2.53;2.42;;;;;;;-4.17;100.00;102181.69;4353235;32;20200;-74
2021/12/22 03:05:29;;;;;;;1.83;1.83;;;;;;;-4.14;100.00;102184.38;4377776;32;20061;-74
2021/12/22 03:07:55;;;;;;;2.10;2.00;;;;;;;-4.61;100.00;102097.44;4367672;32;20088;-73
2021/12/22 03:10:20;;;;;;;2.12;2.03;;;;;;;-4.08;100.00;102190.56;4373882;32;20089;-74
2021/12/22 03:12:47;;;;;;;2.00;1.90;;;;;;;-4.57;100.00;102112.13;4367687;32;20128;-74
2021/12/22 03:15:13;;;;;;;4.00;3.83;;;;;;;-5.11;100.00;102028.41;4363933;32;20467;-74
2021/12/22 03:17:38;;;;;;;2.25;2.15;;;;;;;-4.18;100.00;102177.41;4355209;32;20172;-74
2021/12/22 03:20:08;;;;;;;2.40;2.30;;;;;;;-4.13;100.00;102183.53;4365026;32;20072;-73
2021/12/22 03:22:34;;;;;;;2.00;1.90;;;;;;;-5.11;100.00;102022.38;4361585;32;20109;-74
2021/12/22 03:24:59;;;;;;;2.03;1.92;;;;;;;-4.09;100.00;102183.72;4368036;32;20070;-74
2021/12/22 03:27:24;;;;;;;1.80;1.80;;;;;;;-4.10;100.00;102186.22;4349586;32;20201;-74
2021/12/22 03:29:50;;;;;;;2.37;2.28;;;;;;;-4.10;100.00;102181.09;4362862;32;20072;-74
2021/12/22 03:32:15;;;;;;;4.40;4.20;;;;;;;-4.26;100.00;102167.78;4353469;32;20089;-74
2021/12/22 03:34:41;;;;;;;2.15;2.05;;;;;;;-4.79;100.00;102086.59;4364227;32;20556;-74
2021/12/22 03:37:07;;;;;;;3.47;3.37;;;;;;;-4.27;100.00;102184.00;4362890;32;20081;-75
2021/12/22 03:39:32;;;;;;;2.37;2.28;;;;;;;-4.94;100.00;102056.25;4364238;32;20073;-74
2021/12/22 03:41:58;;;;;;;1.80;1.80;;;;;;;-4.69;100.00;102101.44;4366530;32;20404;-73
2021/12/22 03:44:23;;;;;;;3.35;3.25;;;;;;;-4.35;100.00;102152.13;4361871;32;20203;-75
2021/12/22 03:46:50;;;;;;;2.00;1.90;;;;;;;-4.41;100.00;102137.41;4360191;32;20594;-74
2021/12/22 03:49:15;;;;;;;3.80;3.65;;;;;;;-4.66;100.00;102096.44;4363613;32;20077;-75
2021/12/22 03:51:41;;;;;;;2.08;1.98;;;;;;;-4.59;100.00;102115.41;4374630;32;20544;-73
2021/12/22 03:54:07;;;;;;;1.70;1.70;;;;;;;-4.69;100.00;102106.56;4360101;32;20105;-75
2021/12/22 03:56:33;;;;;;;2.03;1.92;;;;;;;-4.94;100.00;102059.66;4357679;32;20093;-74
2021/12/22 03:58:58;;;;;;;1.80;1.80;;;;;;;-4.27;100.00;102175.41;4368831;32;20065;-74
2021/12/22 04:01:23;;;;;;;2.40;2.30;;;;;;;-4.42;100.00;102156.16;4346251;32;20085;-74
2021/12/22 04:03:53;;;;;;;2.25;2.15;;;;;;;-4.26;100.00;102178.03;4360490;32;20084;-75
2021/12/22 04:06:18;;;;;;;4.03;3.83;;;;;;;-4.31;100.00;102161.66;4365600;32;20066;-74
2021/12/22 04:08:43;;;;;;;2.78;2.67;;;;;;;-4.13;100.00;102180.97;4364327;32;20227;-74
2021/12/22 04:11:09;;;;;;;4.50;4.30;;;;;;;-5.32;100.00;102004.62;4349821;32;20592;-75
2021/12/22 04:13:34;;;;;;;1.80;1.80;;;;;;;-4.33;100.00;102154.72;4367890;32;20077;-74
2021/12/22 04:16:00;;;;;;;2.10;2.00;;;;;;;-4.66;100.00;102094.72;4374982;32;20127;-72
2021/12/22 04:18:25;;;;;;;2.05;1.95;;;;;;;-4.63;100.00;102112.78;4367662;32;20077;-73
2021/12/22 04:20:50;;;;;;;1.70;1.70;;;;;;;-4.76;100.00;102090.13;4360830;32;20134;-73
2021/12/22 04:23:16;;;;;;;4.00;3.83;;;;;;;-4.33;100.00;102180.34;4361935;32;20446;-74
2021/12/22 04:25:41;;;;;;;1.83;1.80;;;;;;;-4.31;100.00;102194.06;4361686;32;20089;-74
2021/12/22 04:28:09;;;;;;;2.00;1.90;;;;;;;-4.49;100.00;102181.50;4363063;32;20066;-73
2021/12/22 04:30:39;;;;;;;1.80;1.80;;;;;;;-4.33;100.00;102199.16;4352825;32;20081;-74
2021/12/22 04:33:05;;;;;;;2.83;2.75;;;;;;;-4.32;100.00;102207.72;4367127;32;20123;-75
2021/12/22 04:35:30;;;;;;;1.95;1.90;;;;;;;-4.35;100.00;102197.34;4352792;32;20575;-74
2021/12/22 04:37:56;;;;;;;1.75;1.75;;;;;;;-4.60;100.00;102142.75;4353277;32;20053;-74
2021/12/22 04:40:21;;;;;;;2.30;2.20;;;;;;;-4.64;100.00;102151.13;4351891;32;20449;-74
2021/12/22 04:42:46;;;;;;;2.67;2.58;;;;;;;-4.65;100.00;102140.03;4358789;32;20413;-74
2021/12/22 04:45:12;;;;;;;2.55;2.45;;;;;;;-4.29;100.00;102215.50;4368372;32;20080;-75
2021/12/22 04:47:38;;;;;;;2.10;2.00;;;;;;;-4.31;100.00;102212.91;4362137;32;20085;-74
2021/12/22 04:50:08;;;;;;;2.08;1.98;;;;;;;-4.36;100.00;102205.88;4353092;32;20089;-73
2021/12/22 04:52:41;;;;;;;1.80;1.80;;;;;;;-4.33;100.00;102203.41;4347929;32;20081;-73
2021/12/22 04:55:07;;;;;;;4.07;3.90;;;;;;;-4.34;100.00;102222.16;4362437;32;20075;-75
2021/12/22 04:57:32;;;;;;;1.98;1.87;;;;;;;-4.39;100.00;102216.87;4352845;32;20654;-74
2021/12/22 04:59:58;;;;;;;1.80;1.80;;;;;;;-5.45;100.00;102031.50;4351625;32;20066;-74
2021/12/22 05:02:24;;;;;;;2.30;2.20;;;;;;;-4.84;100.00;102128.28;4354214;32;20122;-74
2021/12/22 05:04:49;;;;;;;1.80;1.80;;;;;;;-4.36;100.00;102199.06;4364395;32;20073;-75
2021/12/22 05:07:14;;;;;;;1.70;1.70;;;;;;;-4.69;100.00;102134.72;4348759;32;20407;-74
2021/12/22 05:09:40;;;;;;;2.30;2.20;;;;;;;-4.82;100.00;102106.16;4365710;32;20556;-73
2021/12/22 05:12:05;;;;;;;4.10;3.92;;;;;;;-4.32;100.00;102187.22;4360039;32;20065;-75
2021/12/22 05:14:31;;;;;;;1.70;1.70;;;;;;;-4.63;100.00;102134.94;4365796;32;20065;-73
2021/12/22 05:17:02;;;;;;;4.53;2.62;;;;;;;-4.25;100.00;102187.47;4371899;32;20096;-73
2021/12/22 05:19:27;;;;;;;2.45;2.35;;;;;;;-4.31;100.00;102161.66;4366405;32;20061;-73
2021/12/22 05:21:53;;;;;;;2.15;2.05;;;;;;;-4.36;100.00;102150.34;4368906;32;20073;-74
2021/12/22 05:24:18;;;;;;;3.90;3.75;;;;;;;-4.13;100.00;102179.31;4363855;32;20700;-73
2021/12/22 05:26:44;;;;;;;2.05;1.95;;;;;;;-4.13;100.00;102180.97;4350124;32;20506;-73
2021/12/22 05:29:11;;;;;;;3.55;3.45;;;;;;;-4.11;100.00;102184.47;4354931;32;20073;-74
2021/12/22 05:31:37;;;;;;;2.10;2.00;;;;;;;-4.10;100.00;102186.22;4376141;32;20084;-74
2021/12/22 05:34:02;;;;;;;2.12;2.03;;;;;;;-5.58;100.00;101950.03;4373051;32;20062;-74
2021/12/22 05:36:28;;;;;;;2.80;2.70;;;;;;;-4.77;100.00;102090.97;4362663;32;20092;-72
2021/12/22 05:38:53;;;;;;;1.98;1.90;;;;;;;-4.26;100.00;102179.72;4371452;32;20065;-73
2021/12/22 05:41:18;;;;;;;3.47;3.37;;;;;;;-4.99;100.00;102068.91;4349149;32;20089;-74
2021/12/22 05:43:44;;;;;;;2.03;1.92;;;;;;;-4.32;100.00;102182.09;4365514;32;20560;-74
2021/12/22 05:46:09;;;;;;;3.55;3.45;;;;;;;-4.77;100.00;102113.12;4352880;32;20135;-74
2021/12/22 05:48:34;;;;;;;2.08;1.98;;;;;;;-5.34;100.00;102026.75;4368231;32;20065;-73
2021/12/22 05:51:01;;;;;;;1.90;1.85;;;;;;;-4.47;100.00;102173.09;4367191;32;20085;-74
2021/12/22 05:53:27;;;;;;;2.33;2.22;;;;;;;-4.59;100.00;102159.88;4368908;32;20100;-75
2021/12/22 05:55:52;;;;;;;1.98;1.90;;;;;;;-4.75;100.00;102135.44;4354965;32;20077;-74
2021/12/22 05:58:18;;;;;;;3.45;3.35;;;;;;;-4.44;100.00;102165.47;4351874;32;20085;-75
2021/12/22 06:00:43;;;;;;;2.00;1.90;;;;;;;-4.89;100.00;102077.72;4357400;32;20574;-74
2021/12/22 06:03:11;;;;;;;3.65;3.55;;;;;;;-4.52;100.00;102143.84;4348481;32;20335;-75
2021/12/22 06:05:37;;;;;;;2.00;1.90;;;;;;;-4.39;100.00;102146.81;4368617;32;20537;-74
2021/12/22 06:08:04;;;;;;;1.77;1.75;;;;;;;-4.81;100.00;102078.88;4363157;32;20065;-74
2021/12/22 06:10:29;;;;;;;1.75;1.75;;;;;;;-4.26;100.00;102172.03;4362235;32;20775;-75
2021/12/22 06:12:54;;;;;;;2.00;1.90;;;;;;;-4.38;100.00;102153.69;4351424;32;20342;-75
2021/12/22 06:15:20;;;;;;;2.87;2.78;;;;;;;-4.29;100.00;102166.78;4356763;32;21107;-75
2021/12/22 06:17:48;;;;;;;1.73;1.73;;;;;;;-4.28;100.00;102182.22;4354912;32;20077;-75
2021/12/22 06:20:13;;;;;;;3.58;3.47;;;;;;;-4.50;100.00;102120.84;4346217;32;20276;-74
2021/12/22 06:22:38;;;;;;;1.70;1.70;;;;;;;-4.32;100.00;102159.88;4355078;32;20264;-73
2021/12/22 06:25:04;;;;;;;2.33;2.22;;;;;;;-4.59;100.00;102107.75;4363288;32;20568;-74
2021/12/22 06:27:29;;;;;;;1.80;1.80;;;;;;;-4.30;100.00;102171.06;4361385;32;20077;-74
2021/12/22 06:29:55;;;;;;;2.15;2.08;;;;;;;-4.79;100.00;102086.59;4380499;32;20662;-74
2021/12/22 06:32:20;;;;;;;3.08;2.97;;;;;;;-4.26;100.00;102169.47;4348427;32;20080;-75
2021/12/22 06:34:45;;;;;;;1.98;1.90;;;;;;;-4.39;100.00;102150.25;4366131;32;20073;-75
2021/12/22 06:37:12;;;;;;;4.53;4.32;;;;;;;-4.28;100.00;102168.56;4342235;32;20074;-73
2021/12/22 06:39:38;;;;;;;2.17;2.08;;;;;;;-4.38;100.00;102156.25;4365466;32;20066;-74
2021/12/22 06:42:03;;;;;;;3.00;2.78;;;;;;;-4.40;100.00;102151.09;4374363;32;20560;-72
2021/12/22 06:44:29;;;;;;;1.77;1.77;;;;;;;-4.77;100.00;102084.94;4351807;32;20472;-73
2021/12/22 06:46:54;;;;;;;1.98;1.87;;;;;;;-4.28;100.00;102166.00;4366696;32;20143;-75
2021/12/22 06:49:20;;;;;;;3.08;2.95;;;;;;;-4.33;100.00;102153.03;4364491;32;20476;-75
2021/12/22 06:51:45;;;;;;;2.05;1.95;;;;;;;-4.27;100.00;102157.47;4367330;32;20501;-74
2021/12/22 06:54:10;;;;;;;3.58;3.47;;;;;;;-4.24;100.00;102166.13;4355177;32;20085;-75
2021/12/22 06:56:38;;;;;;;2.20;2.10;;;;;;;-5.15;100.00;102006.09;4349827;32;20686;-73
2021/12/22 06:59:03;;;;;;;2.03;1.98;;;;;;;-4.41;100.00;102139.06;4365472;32;20501;-73
2021/12/22 07:01:32;;;;;;;2.10;2.00;;;;;;;-4.28;100.00;102145.47;4367099;32;20406;-74
2021/12/22 07:03:57;;;;;;;1.80;1.80;;;;;;;-4.29;100.00;102138.59;4375766;32;20194;-76
2021/12/22 07:06:23;;;;;;;2.17;2.08;;;;;;;-4.80;100.00;102055.00;4364531;32;20061;-74
2021/12/22 07:08:48;;;;;;;2.10;2.00;;;;;;;-4.34;100.00;102129.91;4372707;32;20082;-74
2021/12/22 07:11:13;;;;;;;3.75;3.62;;;;;;;-4.66;100.00;102066.56;4365157;32;20088;-75
2021/12/22 07:13:39;;;;;;;2.10;2.00;;;;;;;-4.17;100.00;102148.37;4354723;32;20567;-74
2021/12/22 07:16:04;;;;;;;2.10;2.00;;;;;;;-4.11;100.00;102169.97;4368432;32;20576;-73
2021/12/22 07:18:31;;;;;;;1.80;1.80;;;;;;;-4.30;100.00;102124.06;4353570;32;20062;-73
2021/12/22 07:20:56;;;;;;;2.05;1.95;;;;;;;-4.07;100.00;102153.88;4351521;32;20462;-75
2021/12/22 07:23:22;;;;;;;2.00;1.90;;;;;;;-5.08;100.00;101981.56;4351201;32;20689;-74
2021/12/22 07:25:47;;;;;;;1.80;1.80;;;;;;;-4.13;100.00;102151.13;4364801;32;20065;-74
2021/12/22 07:28:13;;;;;;;4.05;3.85;;;;;;;-4.82;100.00;102042.12;4349468;32;20085;-72
2021/12/22 07:30:38;;;;;;;2.10;2.00;;;;;;;-4.12;100.00;102154.53;4362793;32;20131;-74
2021/12/22 07:33:03;;;;;;;2.42;2.37;;;;;;;-4.44;100.00;102129.59;4361104;32;20568;-73
2021/12/22 07:36:02;;;;;;;1.80;1.80;;;;;;;-4.21;100.00;102147.41;4350380;32;20591;-74
2021/12/22 07:38:51;;;;;;;2.05;1.95;;;;;;;-4.43;100.00;102104.84;4367084;32;20066;-74
2021/12/22 07:41:16;;;;;;;3.67;3.55;;;;;;;-4.22;100.00;102123.47;4367257;32;20124;-75
2021/12/22 07:43:42;;;;;;;4.00;3.75;;;;;;;-4.48;100.00;102073.97;4366564;32;20187;-76
2021/12/22 07:46:08;;;;;;;4.00;3.80;;;;;;;-4.02;100.00;102149.72;4371678;32;20568;-74
2021/12/22 07:48:34;;;;;;;2.00;1.90;;;;;;;-4.27;100.00;102111.34;4370907;32;20073;-73
2021/12/22 07:51:00;;;;;;;1.80;1.80;;;;;;;-4.06;100.00;102155.59;4341514;32;20140;-73
2021/12/22 07:53:25;;;;;;;1.75;1.75;;;;;;;-4.38;100.00;102103.31;4361610;32;20279;-73
2021/12/22 07:55:54;;;;;;;1.83;1.83;;;;;;;-4.04;100.00;102161.63;4365439;32;20074;-74
2021/12/22 07:58:23;;;;;;;3.72;3.60;;;;;;;-4.02;100.00;102154.88;4349857;32;20093;-74
2021/12/22 08:00:48;;;;;;;1.80;1.80;;;;;;;-4.76;100.00;102025.25;4366128;32;20208;-74
2021/12/22 08:03:13;;;;;;;3.92;3.75;;;;;;;-4.13;100.00;102127.16;4365042;32;20065;-74
2021/12/22 08:05:39;;;;;;;2.10;2.00;;;;;;;-4.58;100.00;102058.25;4363663;32;20081;-74
2021/12/22 08:08:04;;;;;;;2.72;2.65;;;;;;;-4.48;100.00;102055.16;4367399;32;20057;-75
2021/12/22 08:10:30;;;;;;;2.17;2.08;;;;;;;-3.91;100.00;102152.66;4363238;32;20090;-74
2021/12/22 08:12:55;;;;;;;1.90;1.85;;;;;;;-3.80;100.00;102160.66;4368108;32;20615;-74
2021/12/22 08:15:20;;;;;;;3.35;3.25;;;;;;;-4.86;100.00;101980.56;4349180;32;20264;-73
2021/12/22 08:17:46;;;;;;;2.47;2.37;;;;;;;-3.76;100.00;102162.50;4365948;32;20079;-75
2021/12/22 08:20:11;;;;;;;3.78;3.65;;;;;;;-3.72;100.00;102158.31;4346298;32;20164;-74
2021/12/22 08:22:37;;;;;;;2.00;1.90;;;;;;;-3.87;100.00;102135.63;4352473;32;20069;-74
2021/12/22 08:25:03;;;;;;;2.10;2.08;;;;;;;-3.73;100.00;102146.31;4360729;32;20088;-73
2021/12/22 08:27:28;;;;;;;2.67;2.58;;;;;;;-3.58;100.00;102156.19;4349245;32;20563;-74
2021/12/22 08:29:54;;;;;;;2.10;2.00;;;;;;;-3.67;100.00;102131.09;4358109;32;20505;-74
2021/12/22 08:32:19;;;;;;;4.15;3.95;;;;;;;-4.19;100.00;102039.81;4354793;32;20061;-74
2021/12/22 08:34:46;;;;;;;1.70;1.70;;;;;;;-3.98;100.00;102065.22;4359547;32;20081;-74
2021/12/22 08:39:56;;;;;;;2.12;2.03;;;;;;;-3.39;100.00;102144.72;4365420;32;20084;-75
2021/12/22 08:42:22;;;;;;;2.47;2.37;;;;;;;-3.46;100.00;102129.16;4345819;32;20445;-73
2021/12/22 08:44:47;;;;;;;2.30;2.20;;;;;;;-3.57;100.00;102120.28;4367205;32;20216;-74
2021/12/22 08:47:12;;;;;;;3.70;3.58;;;;;;;-3.41;100.00;102134.41;4346856;32;20077;-74
2021/12/22 08:49:39;;;;;;;2.95;2.85;;;;;;;-3.32;100.00;102133.81;4361655;32;20332;-74
2021/12/22 08:52:04;;;;;;;2.22;2.17;;;;;;;-3.77;100.00;102047.00;4366275;32;20672;-74
2021/12/22 08:54:29;;;;;;;2.10;2.00;;;;;;;-4.20;99.60;101962.03;4361491;32;20082;-74
2021/12/22 08:56:55;;;;;;;2.10;2.00;;;;;;;-3.61;99.86;102054.31;4368064;32;20084;-73
2021/12/22 08:59:21;;;;;;;3.20;3.10;;;;;;;-3.03;99.37;102127.78;4351891;32;20326;-73
2021/12/22 09:01:46;;;;;;;2.10;2.00;;;;;;;-3.05;98.75;102123.44;4365184;32;20077;-73
2021/12/22 09:04:12;;;;;;;2.58;2.47;;;;;;;-3.94;98.94;102002.94;4356838;32;20084;-76
2021/12/22 09:06:37;;;;;;;2.30;2.20;;;;;;;-2.79;98.96;102147.22;4354251;32;20068;-74
2021/12/22 09:09:03;;;;;;;2.40;2.30;;;;;;;-3.02;98.18;102095.28;4353915;32;20195;-75
2021/12/22 09:11:28;;;;;;;2.17;2.08;;;;;;;-3.47;98.28;102024.78;4372504;32;20064;-75
2021/12/22 09:13:54;;;;;;;2.00;1.90;;;;;;;-2.81;98.00;102110.34;4380280;32;20077;-73
2021/12/22 09:16:19;;;;;;;4.25;4.05;;;;;;;-2.69;98.19;102112.38;4353189;32;20081;-75
2021/12/22 09:18:45;;;;;;;2.45;2.35;;;;;;;-3.00;97.34;102057.66;4366358;32;20185;-74
2021/12/22 09:21:10;;;;;;;2.85;2.75;;;;;;;-2.43;96.92;102152.44;4363801;27;20065;-74
2021/12/22 09:23:36;;;;;;;2.22;2.12;;;;;;;-2.69;95.80;102107.22;4335889;32;20217;-75
2021/12/22 09:26:01;;;;;;;2.08;1.98;;;;;;;-2.27;96.38;102155.37;4352751;32;20288;-75
2021/12/22 09:28:27;;;;;;;2.08;1.98;;;;;;;-2.36;95.47;102126.91;4339024;32;20108;-75
2021/12/22 09:30:52;;;;;;;2.70;2.60;;;;;;;-2.34;95.01;102125.22;4361661;32;20073;-74
2021/12/22 09:33:18;;;;;;;3.65;3.55;;;;;;;-2.12;94.65;102149.75;4363915;32;20169;-74
2021/12/22 09:35:45;;;;;;;2.28;2.17;;;;;;;-2.10;94.34;102142.94;4345798;32;20062;-74
2021/12/22 09:38:10;;;;;;;3.65;3.55;;;;;;;-2.13;93.26;102130.00;4349349;32;20073;-73
2021/12/22 09:40:36;;;;;;;2.65;2.55;;;;;;;-2.36;93.99;102096.03;4348742;32;20069;-73
2021/12/22 09:43:01;;;;;;;2.10;2.00;;;;;;;-2.21;93.50;102104.09;4349559;32;20635;-75
2021/12/22 09:45:27;;;;;;;2.25;2.15;;;;;;;-1.90;92.70;102148.53;4358495;32;20135;-74
2021/12/22 09:48:26;;;;;;;2.20;2.10;;;;;;;-2.00;93.37;102111.44;4348504;32;20603;-73
2021/12/22 09:52:16;;;;;;;2.67;2.58;;;;;;;-1.88;92.83;102100.56;4350960;32;20172;-72
2021/12/22 09:53:51;;;;;;;2.60;2.50;;;;;;;-1.64;92.09;102141.41;4367522;32;20095;-75
2021/12/22 09:56:20;;;;;;;3.95;3.75;;;;;;;-2.15;90.73;102042.50;4352875;32;20074;-72
2021/12/22 09:58:45;;;;;;;2.15;2.05;;;;;;;-1.57;90.73;102124.38;4349414;32;20509;-71
2021/12/22 10:01:11;;;;;;;4.25;4.05;;;;;;;-1.50;91.48;102119.38;4337448;32;20164;-74
2021/12/22 10:03:37;;;;;;;2.42;2.33;;;;;;;-1.32;90.48;102149.78;4357070;32;20096;-70
2021/12/22 10:06:03;;;;;;;2.35;2.25;;;;;;;-1.71;89.39;102052.00;4337776;32;20097;-71
2021/12/22 10:08:28;;;;;;;2.65;2.55;;;;;;;-1.13;89.55;102124.38;4357718;32;20187;-72
2021/12/22 10:11:09;;;;;;;2.60;2.50;;;;;;;-1.06;87.87;102121.94;4350454;32;20070;-72
2021/12/22 10:13:36;;;;;;;2.70;2.60;;;;;;;-0.97;88.40;102121.25;4336562;32;20707;-71
2021/12/22 10:16:18;;;;;;;2.20;2.10;;;;;;;-0.89;87.19;102116.22;4354963;32;20084;-71
2021/12/22 10:18:43;;;;;;;3.62;3.08;;;;;;;-0.73;87.27;102119.94;4364864;32;20077;-73
2021/12/22 10:21:13;;;;;;;3.35;3.25;;;;;;;-0.66;86.27;102107.19;4325710;32;20063;-71
2021/12/22 10:23:47;;;;;;;2.20;2.10;;;;;;;-0.50;85.61;102112.59;4329053;32;21003;-72
2021/12/22 10:26:17;;;;;;;3.25;3.15;;;;;;;-0.44;84.65;102100.69;4322354;32;20164;-72
2021/12/22 10:28:59;;;;;;;2.60;2.50;;;;;;;-0.53;83.87;102086.78;4347912;32;20066;-74
2021/12/22 10:31:39;;;;;;;2.30;2.20;;;;;;;-0.46;84.06;102078.28;4334890;32;20121;-73
2021/12/22 10:34:11;;;;;;;2.78;2.67;;;;;;;-0.33;84.78;102102.56;4343504;32;20085;-73
2021/12/22 10:36:48;;;;;;;2.30;2.20;;;;;;;-0.26;84.27;102104.37;4334827;32;20076;-73
2021/12/22 10:39:19;;;;;;;3.90;3.75;;;;;;;-0.19;84.12;102105.34;4318464;32;20090;-72
2021/12/22 10:41:44;;;;;;;2.50;2.40;;;;;;;-0.57;82.33;102039.44;4345028;32;20076;-71
2021/12/22 10:44:09;;;;;;;3.28;3.17;;;;;;;-0.31;82.04;102070.78;4342664;32;20078;-73
2021/12/22 10:46:35;;;;;;;4.07;3.78;;;;;;;-0.77;81.99;101979.84;4343205;32;20071;-73
2021/12/22 10:49:14;;;;;;;2.30;2.20;;;;;;;-0.05;82.15;102093.50;4340870;32;20640;-71
2021/12/22 10:51:41;;;;;;;2.80;2.70;;;;;;;-0.10;82.04;102069.34;4356630;32;20073;-71
2021/12/22 10:54:08;;;;;;;3.62;3.53;;;;;;;0.07;81.45;102082.50;4348461;32;20094;-71
2021/12/22 10:56:44;;;;;;;2.50;2.40;;;;;;;-0.02;80.85;102080.63;4333008;32;20193;-72
2021/12/22 10:59:18;;;;;;;4.62;4.43;;;;;;;0.11;80.87;102079.09;4334710;32;20489;-73
2021/12/22 11:01:53;;;;;;;2.50;2.40;;;;;;;-0.06;80.72;102071.13;4356955;32;20084;-72
2021/12/22 11:04:27;;;;;;;3.87;3.72;;;;;;;-0.29;81.69;102039.84;4343247;32;20150;-73
2021/12/22 11:06:54;;;;;;;2.50;2.40;;;;;;;0.08;81.91;102063.56;4342109;32;20062;-71
2021/12/22 11:09:22;;;;;;;3.87;3.72;;;;;;;0.19;81.41;102069.75;4338965;32;20090;-71
2021/12/22 11:11:57;;;;;;;2.45;2.35;;;;;;;0.22;81.04;102068.91;4354404;32;20079;-73
2021/12/22 11:14:26;;;;;;;2.92;2.83;;;;;;;0.28;81.01;102067.28;4351493;32;20093;-73
2021/12/22 11:17:14;;;;;;;2.70;2.60;;;;;;;0.17;80.30;102068.84;4334081;32;20120;-72
2021/12/22 11:20:00;;;;;;;2.30;2.20;;;;;;;0.06;80.52;102048.09;4368263;32;20340;-74
2021/12/22 11:23:09;;;;;;;2.58;2.47;;;;;;;-0.11;80.74;102003.13;4364033;32;20084;-73
2021/12/22 11:25:31;;;;;;;3.03;2.92;;;;;;;0.17;80.15;102050.78;4351745;32;20212;-74
2021/12/22 11:27:57;;;;;;;2.50;2.40;;;;;;;-0.16;79.35;101989.28;4352959;32;20128;-74
2021/12/22 11:30:23;;;;;;;2.70;2.60;;;;;;;0.23;78.99;102040.53;4351993;32;20935;-72
2021/12/22 11:32:49;;;;;;;2.40;2.30;;;;;;;-1.04;78.98;101811.09;4340184;32;20551;-73
2021/12/22 11:35:14;;;;;;;4.20;4.00;;;;;;;0.12;79.13;101987.91;4350774;32;20074;-73